Time;durP1;ratioP1;P1;durP2;ratioP2;P2;SDS_P1;SDS_P2;PMS_P1;PMS_P2;Temp;Humidity;BMP_temperature;BMP_pressure;BME280_temperature;BME280_humidity;BME280_pressure;Samples;Min_cycle;Max_cycle;Signal;HPM_P1;HPM_P2
2022/09/22 00:05:38;;;;;;;38.63;24.63;;;;;;;9.41;100.00;99565.50;4434901;78;21952;-83
2022/09/22 00:11:44;;;;;;;35.15;23.38;;;;;;;9.38;100.00;99571.67;4461810;78;21031;-83
2022/09/22 00:17:45;;;;;;;42.10;24.50;;;;;;;9.31;100.00;99569.34;4420770;78;20991;-83
2022/09/22 00:23:48;;;;;;;38.28;24.98;;;;;;;9.27;100.00;99563.01;4394026;79;20988;-83
2022/09/22 00:29:50;;;;;;;40.17;25.77;;;;;;;9.24;100.00;99568.58;4451998;78;20988;-84
2022/09/22 00:35:59;;;;;;;35.60;23.40;;;;;;;9.21;100.00;99573.95;4454023;78;21019;-83
2022/09/22 00:42:01;;;;;;;38.25;23.55;;;;;;;9.14;100.00;99570.48;4328264;77;21444;-83
2022/09/22 00:48:02;;;;;;;34.08;22.60;;;;;;;9.09;100.00;99572.11;4313518;80;20978;-84
2022/09/22 00:54:08;;;;;;;41.58;24.30;;;;;;;9.05;100.00;99578.03;4301266;80;21042;-84
2022/09/22 01:00:12;;;;;;;45.58;24.52;;;;;;;9.03;100.00;99575.45;4283930;80;21021;-83
2022/09/22 01:06:22;;;;;;;37.95;25.02;;;;;;;9.04;100.00;99575.09;4285327;80;20955;-84
2022/09/22 01:12:27;;;;;;;34.98;23.83;;;;;;;9.01;100.00;99576.36;4267799;80;21079;-84
2022/09/22 01:19:04;;;;;;;40.23;26.52;;;;;;;9.04;100.00;99578.39;4279280;80;21100;-84
2022/09/22 01:25:47;;;;;;;36.33;25.00;;;;;;;9.06;100.00;99575.55;4291660;80;20951;-83
2022/09/22 01:32:06;;;;;;;43.28;26.77;;;;;;;9.05;100.00;99575.30;4277137;80;20983;-84
2022/09/22 01:38:26;;;;;;;39.58;26.48;;;;;;;9.06;100.00;99576.91;4283480;78;21053;-83
2022/09/22 01:44:59;;;;;;;41.40;25.68;;;;;;;9.08;100.00;99575.97;4451403;77;21031;-83
2022/09/22 01:51:17;;;;;;;40.40;26.25;;;;;;;9.02;100.00;99577.38;4450281;77;20985;-83
2022/09/22 01:57:54;;;;;;;42.33;27.07;;;;;;;9.02;100.00;99579.33;4448131;77;21039;-84
2022/09/22 02:04:24;;;;;;;43.27;27.83;;;;;;;9.03;100.00;99580.91;4448627;77;21005;-83
2022/09/22 02:10:31;;;;;;;40.67;26.50;;;;;;;9.02;100.00;99580.70;4439810;77;21088;-83
2022/09/22 02:16:34;;;;;;;43.23;27.90;;;;;;;9.02;100.00;99571.91;4464767;77;21678;-83
2022/09/22 02:22:35;;;;;;;45.67;27.42;;;;;;;9.03;100.00;99567.25;4440192;77;21060;-83
2022/09/22 02:28:40;;;;;;;38.00;25.27;;;;;;;9.01;100.00;99563.51;4452278;77;21052;-83
2022/09/22 02:34:45;;;;;;;43.02;24.77;;;;;;;8.93;100.00;99558.20;4461144;77;21612;-83
2022/09/22 02:40:52;;;;;;;43.42;24.70;;;;;;;8.90;100.00;99560.27;4452646;77;21538;-84
2022/09/22 02:46:57;;;;;;;;;;;;;;;8.93;100.00;99564.46;4450648;80;20973;-83
2022/09/22 02:53:02;;;;;;;46.50;26.15;;;;;;;8.94;100.00;99562.53;4427231;78;20814;-83
2022/09/22 02:59:04;;;;;;;41.97;25.40;;;;;;;8.96;100.00;99559.66;4375113;79;20929;-83
2022/09/22 03:05:06;;;;;;;38.92;24.12;;;;;;;8.95;100.00;99556.72;4413421;78;20982;-84
2022/09/22 03:11:08;;;;;;;38.55;24.30;;;;;;;8.95;100.00;99560.81;4417286;78;20989;-82
2022/09/22 03:17:10;;;;;;;42.15;26.37;;;;;;;8.94;100.00;99567.99;4405687;78;21918;-83
2022/09/22 03:23:15;;;;;;;46.65;27.87;;;;;;;8.97;100.00;99561.83;4412591;78;20972;-83
2022/09/22 03:29:17;;;;;;;50.55;28.73;;;;;;;8.97;100.00;99559.87;4428034;79;21496;-83
2022/09/22 03:35:18;;;;;;;49.33;30.20;;;;;;;8.99;100.00;99561.69;4415320;78;21578;-83
2022/09/22 03:41:21;;;;;;;51.35;29.70;;;;;;;8.98;100.00;99561.48;4420474;77;22032;-84
2022/09/22 03:47:23;;;;;;;45.43;26.93;;;;;;;9.01;100.00;99565.44;4413507;79;21010;-83
2022/09/22 03:53:26;;;;;;;46.42;28.83;;;;;;;9.02;100.00;99565.67;4418160;79;21066;-83
2022/09/22 03:59:27;;;;;;;50.12;28.32;;;;;;;9.01;100.00;99575.80;4424950;79;21529;-83
2022/09/22 04:05:29;;;;;;;53.90;29.18;;;;;;;8.99;100.00;99571.84;4409893;79;21567;-83
2022/09/22 04:11:30;;;;;;;58.35;32.35;;;;;;;8.99;100.00;99567.16;4393294;79;21039;-83
2022/09/22 04:17:32;;;;;;;47.27;29.00;;;;;;;8.98;100.00;99566.94;4410875;79;21012;-82
2022/09/22 04:23:34;;;;;;;49.23;28.52;;;;;;;8.97;100.00;99568.66;4412167;79;21023;-82
2022/09/22 04:29:35;;;;;;;50.10;27.65;;;;;;;8.94;100.00;99572.09;4417425;78;22058;-83
2022/09/22 04:35:37;;;;;;;47.62;25.40;;;;;;;8.90;100.00;99565.16;4422758;78;21008;-84
2022/09/22 04:41:38;;;;;;;48.28;25.85;;;;;;;8.84;100.00;99569.30;4433260;78;20992;-81
2022/09/22 04:47:40;;;;;;;49.42;25.23;;;;;;;8.79;100.00;99572.27;4457750;78;21422;-82
2022/09/22 04:53:42;;;;;;;45.80;24.52;;;;;;;8.78;100.00;99580.81;4441245;78;21046;-83
2022/09/22 04:59:43;;;;;;;48.65;24.67;;;;;;;8.73;100.00;99578.33;4466881;78;21008;-84
2022/09/22 05:05:46;;;;;;;45.63;23.73;;;;;;;8.73;100.00;99575.03;4465777;78;20952;-83
2022/09/22 05:11:48;;;;;;;49.80;23.83;;;;;;;8.69;100.00;99574.13;4450617;78;20972;-83
2022/09/22 05:17:52;;;;;;;46.02;22.75;;;;;;;8.68;100.00;99579.38;4451717;78;21011;-83
2022/09/22 05:23:54;;;;;;;47.15;23.45;;;;;;;8.69;100.00;99585.05;4382806;78;21045;-83
2022/09/22 05:29:56;;;;;;;45.52;23.05;;;;;;;8.70;100.00;99585.29;4284144;80;21010;-83
2022/09/22 05:35:57;;;;;;;47.17;23.32;;;;;;;8.71;100.00;99592.33;4255948;81;22288;-82
2022/09/22 05:41:59;;;;;;;37.28;21.42;;;;;;;8.76;100.00;99591.28;4243753;81;21087;-83
2022/09/22 05:48:01;;;;;;;40.88;20.82;;;;;;;8.77;100.00;99588.20;4251267;81;20964;-83
2022/09/22 05:54:02;;;;;;;43.75;20.45;;;;;;;8.78;100.00;99595.83;4255680;81;21031;-84
2022/09/22 06:00:06;;;;;;;43.25;21.10;;;;;;;8.83;100.00;99602.41;4253581;81;21004;-83
2022/09/22 06:06:15;;;;;;;40.83;19.55;;;;;;;8.84;100.00;99600.69;4252285;80;21160;-83
2022/09/22 06:12:17;;;;;;;39.05;20.17;;;;;;;8.85;100.00;99605.00;4285181;81;21103;-82
2022/09/22 06:18:19;;;;;;;35.70;18.17;;;;;;;8.91;100.00;99609.66;4253946;81;21009;-82
2022/09/22 06:24:22;;;;;;;31.07;18.00;;;;;;;8.95;100.00;99615.43;4264933;81;21035;-82
2022/09/22 06:30:24;;;;;;;34.13;19.45;;;;;;;9.03;100.00;99613.67;4287945;80;21082;-83
2022/09/22 06:36:30;;;;;;;32.55;17.00;;;;;;;9.06;100.00;99616.51;4267347;81;21585;-82
2022/09/22 06:42:29;;;;;;;27.77;16.82;;;;;;;9.09;100.00;99625.93;4266992;81;20992;-83
2022/09/22 06:48:30;;;;;;;30.48;16.85;;;;;;;9.11;100.00;99626.38;4277389;81;21637;-83
2022/09/22 06:54:32;;;;;;;32.60;16.60;;;;;;;9.21;100.00;99627.22;4276579;81;21050;-82
2022/09/22 07:00:33;;;;;;;24.52;13.78;;;;;;;9.22;100.00;99630.97;4263165;81;21098;-82
2022/09/22 07:06:36;;;;;;;24.23;14.85;;;;;;;9.27;100.00;99640.27;4282489;81;21937;-83
2022/09/22 07:12:37;;;;;;;25.75;14.38;;;;;;;9.25;100.00;99635.75;4289768;81;21042;-83
2022/09/22 07:18:42;;;;;;;23.95;14.47;;;;;;;9.31;100.00;99628.89;4287020;79;21030;-82
2022/09/22 07:24:44;;;;;;;30.00;16.52;;;;;;;9.40;100.00;99630.88;4285148;81;21042;-83
2022/09/22 07:30:46;;;;;;;26.68;13.03;;;;;;;9.48;100.00;99637.30;4287472;81;20983;-83
2022/09/22 07:36:48;;;;;;;23.75;13.78;;;;;;;9.60;100.00;99637.20;4278993;81;21054;-83
2022/09/22 07:42:49;;;;;;;23.05;13.25;;;;;;;9.77;100.00;99638.25;4289400;81;20974;-83
2022/09/22 07:48:51;;;;;;;23.52;13.22;;;;;;;9.86;100.00;99633.95;4284108;81;21399;-83
2022/09/22 07:54:52;;;;;;;20.23;12.13;;;;;;;9.81;100.00;99638.31;4289320;81;21036;-83
2022/09/22 08:00:54;;;;;;;14.07;8.53;;;;;;;9.80;100.00;99638.09;4289996;83;21063;-83
2022/09/22 08:06:55;;;;;;;13.68;7.80;;;;;;;9.91;100.00;99637.22;4294466;79;20995;-83
2022/09/22 08:12:57;;;;;;;13.88;8.05;;;;;;;10.04;100.00;99644.75;4284249;81;21051;-83
2022/09/22 08:19:02;;;;;;;13.40;7.15;;;;;;;10.13;100.00;99644.00;4268832;81;21046;-83
2022/09/22 08:25:04;;;;;;;17.23;7.70;;;;;;;10.22;100.00;99652.23;4251069;80;21043;-84
2022/09/22 08:31:13;;;;;;;13.15;7.25;;;;;;;10.40;100.00;99656.72;4227954;81;21008;-83
2022/09/22 08:37:15;;;;;;;10.90;7.47;;;;;;;10.55;100.00;99657.27;4272973;81;20980;-83
2022/09/22 08:43:16;;;;;;;11.73;7.87;;;;;;;10.57;100.00;99646.16;4228112;80;21028;-83
2022/09/22 08:56:35;;;;;;;13.05;7.40;;;;;;;10.48;100.00;99658.46;4149283;82;21023;-83
2022/09/22 09:03:05;;;;;;;12.98;6.97;;;;;;;10.64;100.00;99653.73;4221825;81;21504;-83
2022/09/22 09:09:21;;;;;;;11.68;6.95;;;;;;;10.73;100.00;99643.35;4225985;81;21003;-83
2022/09/22 09:15:43;;;;;;;12.58;7.30;;;;;;;10.75;100.00;99636.38;4234065;81;21001;-84
2022/09/22 09:21:55;;;;;;;11.35;6.72;;;;;;;11.05;100.00;99633.84;4209294;81;20988;-83
2022/09/22 09:28:05;;;;;;;7.62;5.33;;;;;;;12.68;100.00;99622.38;4257677;81;21058;-83
2022/09/22 09:34:15;;;;;;;10.18;5.03;;;;;;;14.36;100.00;99616.30;4258630;81;21018;-83
2022/09/22 09:40:19;;;;;;;7.65;4.70;;;;;;;15.36;100.00;99623.97;4280264;81;21106;-84
2022/09/22 09:46:52;;;;;;;6.42;3.90;;;;;;;16.39;100.00;99612.34;4300668;81;21541;-85
2022/09/22 09:52:54;;;;;;;3.47;2.77;;;;;;;17.17;100.00;99614.44;4284185;81;21054;-83
2022/09/22 10:05:26;;;;;;;8.05;3.55;;;;;;;17.05;98.10;99610.73;4292451;81;21377;-84
2022/09/22 10:11:30;;;;;;;4.60;3.35;;;;;;;16.40;95.52;99610.56;4240053;81;21003;-84
2022/09/22 10:17:40;;;;;;;5.83;2.92;;;;;;;15.63;94.63;99616.16;4281464;81;21416;-84
2022/09/22 10:23:46;;;;;;;5.83;3.02;;;;;;;15.05;95.44;99619.17;4284190;81;21051;-85
2022/09/22 10:29:48;;;;;;;7.25;3.35;;;;;;;14.34;93.54;99619.25;4230232;81;21056;-84
2022/09/22 10:36:05;;;;;;;5.95;2.98;;;;;;;13.84;94.35;99623.60;4138345;82;21080;-83
2022/09/22 10:42:36;;;;;;;4.12;3.30;;;;;;;13.46;93.83;99619.91;4230356;80;21068;-83
2022/09/22 10:49:03;;;;;;;6.35;3.50;;;;;;;13.81;96.11;99607.86;4222872;81;20992;-83
2022/09/22 10:55:22;;;;;;;3.08;2.05;;;;;;;14.96;96.09;99602.80;4266746;81;21068;-83
2022/09/22 11:01:48;;;;;;;5.40;2.65;;;;;;;16.07;92.85;99598.59;4214642;81;21036;-84
2022/09/22 11:14:30;;;;;;;1.75;1.30;;;;;;;15.44;87.76;99608.28;4227952;81;20997;-84
2022/09/22 11:20:43;;;;;;;1.25;1.12;;;;;;;14.23;88.04;99603.22;4220806;81;20995;-82
2022/09/22 11:26:53;;;;;;;1.70;1.30;;;;;;;13.53;89.77;99605.64;4254878;81;20996;-84
2022/09/22 11:33:17;;;;;;;1.57;1.32;;;;;;;13.14;90.07;99608.59;4276447;81;20988;-83
2022/09/22 11:39:34;;;;;;;1.47;1.10;;;;;;;12.92;90.97;99610.10;4292930;81;21031;-84
2022/09/22 11:45:50;;;;;;;2.52;1.90;;;;;;;12.97;91.64;99609.73;4256655;81;21007;-83
2022/09/22 11:52:19;;;;;;;2.72;1.77;;;;;;;13.08;91.48;99605.19;4297200;81;21043;-83
2022/09/22 11:58:26;;;;;;;3.02;1.90;;;;;;;13.16;91.17;99599.40;4282439;79;21487;-82
2022/09/22 12:04:50;;;;;;;2.62;1.80;;;;;;;13.32;91.61;99597.78;4274019;81;21026;-83
2022/09/22 12:10:54;;;;;;;3.95;2.60;;;;;;;13.35;91.29;99601.15;4296699;81;21039;-85
2022/09/22 12:17:10;;;;;;;3.92;2.17;;;;;;;13.18;91.09;99595.70;4286787;81;21340;-85
2022/09/22 12:23:24;;;;;;;4.20;2.15;;;;;;;12.62;91.59;99605.41;4239371;81;21610;-85
2022/09/22 12:29:29;;;;;;;11.93;2.20;;;;;;;12.43;92.82;99597.32;4255342;81;21048;-85
2022/09/22 12:35:30;;;;;;;1.77;1.40;;;;;;;12.31;92.97;99589.89;4231355;81;20976;-86
2022/09/22 12:41:34;;;;;;;2.47;1.57;;;;;;;12.20;93.44;99582.13;4079672;83;21078;-84
2022/09/22 12:47:40;;;;;;;2.75;1.60;;;;;;;12.25;94.10;99573.54;4218518;83;20972;-86
2022/09/22 12:53:42;;;;;;;2.33;1.62;;;;;;;12.19;93.65;99565.42;4240603;83;21012;-85
2022/09/22 12:59:58;;;;;;;1.82;1.40;;;;;;;12.19;94.03;99563.48;4236854;84;21579;-85
2022/09/22 13:06:23;;;;;;;4.97;2.20;;;;;;;12.19;93.88;99564.05;4224933;84;21040;-85
2022/09/22 13:12:26;;;;;;;3.35;1.82;;;;;;;12.17;94.68;99560.88;4227171;84;21024;-84
2022/09/22 13:18:46;;;;;;;2.72;1.95;;;;;;;12.22;94.71;99552.33;4228437;81;20984;-84
2022/09/22 13:24:49;;;;;;;3.25;2.08;;;;;;;12.22;94.99;99552.33;4217355;81;21607;-85
2022/09/22 13:31:04;;;;;;;2.20;1.80;;;;;;;12.22;95.48;99549.59;4266636;81;21458;-85
2022/09/22 13:37:20;;;;;;;3.40;1.65;;;;;;;12.24;95.48;99558.25;4229916;81;21016;-85
2022/09/22 13:43:33;;;;;;;5.12;3.17;;;;;;;12.22;94.75;99559.19;4212868;81;21031;-84
2022/09/22 13:49:41;;;;;;;3.98;2.90;;;;;;;12.21;94.94;99552.93;4144404;81;21507;-84
2022/09/22 13:55:42;;;;;;;5.03;3.40;;;;;;;12.22;95.21;99546.84;4232878;80;21032;-85
2022/09/22 14:01:50;;;;;;;7.08;4.12;;;;;;;12.25;95.65;99543.34;4175237;81;20956;-84
2022/09/22 14:07:51;;;;;;;6.47;3.58;;;;;;;12.28;95.73;99541.23;4234072;84;21044;-84
2022/09/22 14:13:58;;;;;;;5.33;3.17;;;;;;;12.23;96.05;99542.34;4231214;80;21420;-85
2022/09/22 14:20:06;;;;;;;;;;;;;;;12.12;95.96;99529.06;4230509;81;21045;-86
2022/09/22 14:26:26;;;;;;;8.15;3.15;;;;;;;12.07;96.75;99529.98;4250941;80;20471;-85
2022/09/22 14:32:40;;;;;;;7.60;3.05;;;;;;;11.94;96.27;99521.76;4285460;81;21057;-85
2022/09/22 14:38:42;;;;;;;5.87;3.72;;;;;;;11.84;96.68;99532.79;4291067;81;22039;-84
2022/09/22 14:44:51;;;;;;;4.97;2.95;;;;;;;11.81;96.61;99536.28;4255941;81;21007;-84
2022/09/22 14:51:07;;;;;;;5.47;3.45;;;;;;;11.83;97.31;99538.65;4220436;84;21066;-85
2022/09/22 14:57:08;;;;;;;5.40;3.95;;;;;;;11.92;97.26;99538.59;4288512;81;20959;-84
2022/09/22 15:03:27;;;;;;;4.92;3.70;;;;;;;12.05;97.01;99543.28;4255800;80;21026;-84
2022/09/22 15:09:33;;;;;;;4.92;2.50;;;;;;;12.11;97.32;99541.79;4284392;81;21483;-84
2022/09/22 15:15:40;;;;;;;5.42;3.40;;;;;;;12.08;96.40;99539.79;4397400;81;21015;-84
2022/09/22 15:21:47;;;;;;;;;;;;;;;12.03;96.93;99537.36;4296621;81;21523;-84
2022/09/22 15:27:45;;;;;;;4.55;2.90;;;;;;;12.00;97.23;99534.79;4151144;81;10000300;-84
2022/09/22 15:33:48;;;;;;;5.37;3.08;;;;;;;11.84;96.81;99524.56;4256438;81;20992;-84
2022/09/22 15:39:49;;;;;;;4.90;2.30;;;;;;;11.74;96.42;99533.44;4238273;80;21479;-84
2022/09/22 15:45:54;;;;;;;4.70;3.40;;;;;;;11.62;96.28;99522.63;4215992;81;21040;-84
2022/09/22 15:51:57;;;;;;;7.85;3.95;;;;;;;11.56;96.31;99526.85;4212338;81;21487;-84
2022/09/22 15:58:06;;;;;;;7.35;3.77;;;;;;;11.50;96.58;99530.27;4232236;81;21012;-83
2022/09/22 16:04:03;;;;;;;6.50;4.67;;;;;;;11.42;96.60;99532.11;4154811;80;20988;-83
2022/09/22 16:10:05;;;;;;;6.97;3.47;;;;;;;11.33;97.26;99539.00;4220916;81;21036;-83
2022/09/22 16:16:09;;;;;;;6.97;3.65;;;;;;;11.22;97.04;99544.88;4229702;81;22055;-84
2022/09/22 16:22:11;;;;;;;5.47;3.08;;;;;;;11.15;97.25;99548.28;4228581;80;21088;-84
2022/09/22 16:28:13;;;;;;;4.97;3.33;;;;;;;11.00;97.46;99545.89;4137898;80;10000094;-83
2022/09/22 16:34:14;;;;;;;10.90;3.95;;;;;;;10.88;97.59;99546.05;4221050;81;21470;-83
2022/09/22 16:40:18;;;;;;;10.78;4.47;;;;;;;10.78;97.78;99540.38;4263967;81;21043;-83
2022/09/22 16:46:25;;;;;;;9.05;4.17;;;;;;;10.73;98.07;99546.95;4257019;81;21070;-82
2022/09/22 16:52:30;;;;;;;7.33;4.58;;;;;;;10.69;98.29;99537.89;4253246;81;21518;-84
2022/09/22 16:58:30;;;;;;;6.83;4.15;;;;;;;10.61;98.46;99541.64;4254030;80;21031;-83
2022/09/22 17:04:32;;;;;;;7.72;4.85;;;;;;;10.54;98.79;99543.45;4253670;81;20986;-83
2022/09/22 17:10:34;;;;;;;9.18;5.15;;;;;;;10.52;99.32;99536.94;4264780;80;21070;-85
2022/09/22 17:16:40;;;;;;;8.85;5.25;;;;;;;10.49;99.33;99534.92;4242920;81;20980;-83
2022/09/22 17:22:43;;;;;;;8.85;5.20;;;;;;;10.46;99.93;99541.13;4256859;81;21027;-83
2022/09/22 17:28:46;;;;;;;11.33;6.20;;;;;;;10.43;100.00;99554.76;4116382;81;10000371;-83
2022/09/22 17:34:47;;;;;;;13.90;7.62;;;;;;;10.38;99.71;99556.41;4233601;80;20997;-83
2022/09/22 17:40:54;;;;;;;13.85;7.10;;;;;;;10.33;100.00;99550.65;4225569;81;21048;-83
2022/09/22 17:59:34;;;;;;;9.75;6.50;;;;;;;10.22;100.00;99567.98;4240948;81;21004;-83
2022/09/22 18:05:37;;;;;;;11.12;6.47;;;;;;;10.24;100.00;99579.38;4264152;81;21492;-82
2022/09/22 18:11:42;;;;;;;12.37;7.12;;;;;;;10.21;100.00;99584.97;4241118;81;21063;-83
2022/09/22 18:17:42;;;;;;;15.13;8.30;;;;;;;10.19;100.00;99581.81;4231423;81;21444;-82
2022/09/22 18:23:44;;;;;;;16.05;10.18;;;;;;;10.16;100.00;99588.57;4221602;81;21082;-83
2022/09/22 18:29:48;;;;;;;19.27;13.05;;;;;;;10.17;100.00;99588.21;4144984;81;9999571;-82
2022/09/22 18:35:49;;;;;;;20.20;13.00;;;;;;;10.12;100.00;99587.12;4274502;81;20989;-83
2022/09/22 18:41:53;;;;;;;20.23;12.88;;;;;;;10.13;100.00;99590.66;4289774;79;20971;-85
2022/09/22 18:47:58;;;;;;;26.25;14.58;;;;;;;10.11;100.00;99600.59;4280036;81;20987;-83
2022/09/22 18:54:05;;;;;;;25.45;15.03;;;;;;;10.11;100.00;99604.69;4295621;81;21019;-83
2022/09/22 19:00:03;;;;;;;20.00;13.53;;;;;;;10.08;100.00;99598.57;4291845;81;21442;-83
2022/09/22 19:06:06;;;;;;;25.43;14.05;;;;;;;10.03;100.00;99591.17;4275128;81;21358;-82
2022/09/22 19:12:09;;;;;;;17.65;11.68;;;;;;;9.97;100.00;99590.67;4288248;81;20943;-83
2022/09/22 19:18:11;;;;;;;19.20;12.23;;;;;;;9.95;100.00;99585.31;4275726;81;21003;-83
2022/09/22 19:24:12;;;;;;;20.62;12.82;;;;;;;9.90;100.00;99589.13;4285614;81;21026;-83
2022/09/22 19:30:13;;;;;;;21.50;14.50;;;;;;;9.89;100.00;99587.55;4149481;81;10000162;-83
2022/09/22 19:36:15;;;;;;;22.87;13.38;;;;;;;9.88;100.00;99589.27;4245704;81;21035;-83
2022/09/22 19:42:17;;;;;;;19.12;13.40;;;;;;;9.84;100.00;99589.74;4248039;81;21015;-83
2022/09/22 19:48:19;;;;;;;21.60;14.05;;;;;;;9.74;100.00;99595.18;4258782;81;20992;-83
2022/09/22 19:54:20;;;;;;;20.30;13.00;;;;;;;9.75;100.00;99594.05;4252904;81;21471;-83
2022/09/22 20:00:24;;;;;;;21.48;13.22;;;;;;;9.78;100.00;99585.14;4259564;81;21024;-83
2022/09/22 20:06:26;;;;;;;19.00;12.20;;;;;;;9.66;100.00;99592.65;4265139;80;21031;-83
2022/09/22 20:12:27;;;;;;;20.35;12.95;;;;;;;9.68;100.00;99584.30;4254536;81;21929;-83
2022/09/22 20:18:29;;;;;;;21.17;13.10;;;;;;;9.72;100.00;99585.77;4256525;80;21010;-83
2022/09/22 20:24:30;;;;;;;21.82;14.43;;;;;;;9.69;100.00;99583.73;4259159;81;21079;-83
2022/09/22 20:30:32;;;;;;;19.92;13.15;;;;;;;9.65;100.00;99585.61;4301070;80;21511;-83
2022/09/22 20:36:35;;;;;;;20.10;12.13;;;;;;;9.61;100.00;99586.08;4291291;81;20971;-84
2022/09/22 20:42:36;;;;;;;20.25;12.98;;;;;;;9.55;100.00;99583.61;4280701;81;21051;-83
2022/09/22 20:48:38;;;;;;;23.77;14.60;;;;;;;9.49;100.00;99572.73;4258339;81;21024;-83
2022/09/22 20:54:39;;;;;;;19.32;14.40;;;;;;;9.49;100.00;99576.02;4287848;81;21114;-82
2022/09/22 21:00:40;;;;;;;23.27;14.68;;;;;;;9.43;100.00;99582.91;4289968;80;21026;-83
2022/09/22 21:06:42;;;;;;;21.55;14.85;;;;;;;9.35;100.00;99573.74;4287744;81;21027;-82
2022/09/22 21:12:43;;;;;;;20.97;14.15;;;;;;;9.37;100.00;99576.92;4292009;81;21417;-83
2022/09/22 21:18:46;;;;;;;21.80;14.63;;;;;;;9.32;100.00;99569.55;4295438;81;21102;-83
2022/09/22 21:24:47;;;;;;;24.50;13.85;;;;;;;9.31;100.00;99575.61;4293219;81;21518;-83
2022/09/22 21:31:02;;;;;;;23.35;14.90;;;;;;;9.29;100.00;99571.63;4279999;81;21030;-83
2022/09/22 21:37:04;;;;;;;23.92;16.73;;;;;;;9.29;100.00;99575.72;4288446;81;20996;-84
2022/09/22 21:43:05;;;;;;;23.75;16.02;;;;;;;9.32;100.00;99575.02;4280548;81;21007;-85
2022/09/22 21:49:09;;;;;;;25.88;16.75;;;;;;;9.34;100.00;99572.17;4310913;81;21035;-84
2022/09/22 21:55:10;;;;;;;22.55;17.20;;;;;;;9.25;100.00;99572.92;4283142;81;21046;-84
2022/09/22 22:01:19;;;;;;;30.57;18.32;;;;;;;9.30;100.00;99576.73;4287543;81;21449;-84
2022/09/22 22:07:20;;;;;;;23.83;16.55;;;;;;;9.32;100.00;99564.09;4294114;81;21038;-85
2022/09/22 22:13:22;;;;;;;25.50;18.25;;;;;;;9.25;100.00;99563.36;4291309;81;21094;-85
2022/09/22 22:19:25;;;;;;;25.65;18.20;;;;;;;9.26;100.00;99560.03;4288560;81;20979;-84
2022/09/22 22:25:27;;;;;;;27.50;20.02;;;;;;;9.24;100.00;99554.13;4288711;81;21042;-84
2022/09/22 22:31:28;;;;;;;30.30;20.05;;;;;;;9.27;100.00;99556.17;4283729;81;20956;-84
2022/09/22 22:37:29;;;;;;;30.60;19.70;;;;;;;9.25;100.00;99551.63;4231379;81;21020;-84
2022/09/22 22:43:31;;;;;;;33.63;21.40;;;;;;;9.20;100.00;99543.69;4241922;81;21722;-85
2022/09/22 22:49:33;;;;;;;28.77;21.10;;;;;;;9.21;100.00;99542.53;4259469;81;21020;-84
2022/09/22 22:55:35;;;;;;;30.55;21.40;;;;;;;9.16;100.00;99539.50;4246711;80;21031;-84
2022/09/22 23:01:36;;;;;;;29.50;20.23;;;;;;;9.18;100.00;99533.12;4227203;81;21016;-84
2022/09/22 23:07:37;;;;;;;35.23;21.60;;;;;;;9.07;100.00;99525.79;4233402;81;21001;-84
2022/09/22 23:13:44;;;;;;;29.42;19.67;;;;;;;9.08;100.00;99526.80;4236444;81;21012;-84
2022/09/22 23:19:45;;;;;;;31.80;21.17;;;;;;;9.06;100.00;99519.56;4233127;81;20992;-84
2022/09/22 23:25:49;;;;;;;30.08;20.80;;;;;;;9.05;100.00;99520.69;4164263;81;21024;-84
2022/09/22 23:31:50;;;;;;;31.07;21.62;;;;;;;8.99;100.00;99518.59;4281354;81;21003;-83
2022/09/22 23:37:52;;;;;;;27.65;20.00;;;;;;;8.92;100.00;99521.93;4287950;81;21093;-84
2022/09/22 23:43:53;;;;;;;32.35;21.15;;;;;;;8.96;100.00;99521.44;4285600;81;21011;-84
2022/09/22 23:49:55;;;;;;;29.40;20.50;;;;;;;9.01;100.00;99522.55;4286066;81;21087;-84
2022/09/22 23:55:56;;;;;;;29.57;20.43;;;;;;;8.95;100.00;99519.86;4297562;81;21157;-83
